• Join FlightAware (Why Join?)
  • Login
  • US Flag 
06:13AM EST


 

Airport Tracker/Info


-or-


 

Live Flight TrackerFlight Track Log ✈ CPT7773 ✈ 02-May-2013 ✈ KCOD - KCPR

Flight Track Log - Related Links

Times and Time Zones

All times are in EDT time to prevent confusion due to time zone crossing. See the CPT7773 flight status page for this flight to view local times or setup timezone preferences in your user account.

Time Position Orientation Groundspeed Altitude Reporting Facility
EDT Latitude Longitude Course Direction KTS MPH feet Rate Location/Type
07:51PM 44.4831 -108.9147 120° Southeast 117 135 8,200  Level Salt Lake Center
07:52PM 44.4631 -108.8767 126° Southeast 122 140 9,200 976 Climbing Salt Lake Center
07:53PM 44.4414 -108.8358 127° Southeast 128 147 10,200 829 Climbing Salt Lake Center
07:54PM 44.4139 -108.7858 128° Southeast 137 158 10,900 387 Climbing Salt Lake Center
07:55PM 44.3881 -108.7381 127° Southeast 147 169 11,000 48 Climbing Salt Lake Center
07:56PM 44.4009 -108.7619 120° Southeast  Level FlightAware Approximate
07:56PM 44.3519 -108.6736 128° Southeast 168 193 11,000  Level Salt Lake Center
07:57PM 44.3228 -108.6144 125° Southeast 183 211 11,000  Level Salt Lake Center
07:58PM 44.2869 -108.5486 127° Southeast 189 217 11,000 -48 Level Salt Lake Center
07:59PM 44.2569 -108.4936 127° Southeast 188 216 10,900 -48 Descending Salt Lake Center
08:00PM 44.2231 -108.4303 127° Southeast 186 214 10,900 49 Level Salt Lake Center
08:01PM 44.1947 -108.3761 126° Southeast 183 211 11,000 49 Climbing Salt Lake Center
08:02PM 44.1606 -108.3139 127° Southeast 182 209 11,000  Level Salt Lake Center
08:03PM 44.1325 -108.2606 126° Southeast 181 208 11,000 -48 Level Salt Lake Center
08:04PM 44.1025 -108.2078 128° Southeast 181 208 10,900  Descending Salt Lake Center
08:05PM 44.0689 -108.1469 128° Southeast 180 207 11,000 49 Climbing Salt Lake Center
08:06PM 44.0400 -108.0928 127° Southeast 180 207 11,000 48 Level Salt Lake Center
08:07PM 44.0058 -108.0297 127° Southeast 182 209 11,100 49 Climbing Salt Lake Center
08:08PM 43.9756 -107.9753 128° Southeast 184 212 11,100  Level Salt Lake Center
08:09PM 43.9408 -107.9133 128° Southeast 184 212 11,100  Level Salt Lake Center
08:10PM 43.9125 -107.8575 125° Southeast 184 212 11,100 -49 Level Salt Lake Center
08:11PM 43.8853 -107.8017 124° Southeast 183 211 11,000  Descending Salt Lake Center
08:12PM 43.8531 -107.7372 125° Southeast 183 211 11,100 48 Climbing Salt Lake Center
08:13PM 43.8244 -107.6817 126° Southeast 183 211 11,100  Level Salt Lake Center
08:14PM 43.7900 -107.6175 127° Southeast 185 213 11,100  Level Salt Lake Center
08:15PM 43.7622 -107.5619 125° Southeast 185 213 11,100  Level Salt Lake Center
08:16PM 43.7283 -107.4981 126° Southeast 184 212 11,100 -48 Level Salt Lake Center
08:17PM 43.7006 -107.4419 124° Southeast 184 212 11,000  Descending Salt Lake Center
08:18PM 43.6667 -107.3783 126° Southeast 185 213 11,100 49 Climbing Salt Lake Center
08:20PM 43.6389 -107.3219 124° Southeast 184 212 11,100  Level Salt Lake Center
08:21PM 43.6117 -107.2703 126° Southeast 180 207 11,100 -48 Level Salt Lake Center
08:22PM 43.5797 -107.2067 125° Southeast 179 206 11,000  Descending Salt Lake Center
08:23PM 43.5506 -107.1550 128° Southeast 180 207 11,100 49 Climbing Salt Lake Center
08:24PM 43.5169 -107.0914 126° Southeast 182 209 11,100  Level Salt Lake Center
08:25PM 43.4883 -107.0389 127° Southeast 181 208 11,100  Level Salt Lake Center
08:26PM 43.4572 -106.9803 126° Southeast 172 198 11,100 -48 Level Salt Lake Center
08:27PM 43.4297 -106.9261 125° Southeast 173 199 11,000  Descending Salt Lake Center
08:28PM 43.4022 -106.8739 126° Southeast 175 201 11,100 46 Climbing Salt Lake Center
08:29PM 43.3719 -106.8097 123° Southeast 176 203 11,100 -46 Level Denver Center
08:30PM 43.3300 -106.7597 139° Southeast 181 208 11,000  Descending Denver Center
08:31PM 43.2856 -106.7342 157° South 180 207 11,100  Climbing Denver Center
08:32PM 43.2358 -106.6975 152° Southeast 181 208 11,000 -48 Descending Denver Center
08:33PM 43.1936 -106.6681 153° Southeast 179 206 11,000 -435 Level Denver Center
08:34PM 43.1453 -106.6253 147° Southeast 184 212 10,100 -823 Descending Denver Center
08:35PM 43.1022 -106.5917 150° Southeast 184 212 9,300 -919 Descending Denver Center
08:36PM 43.0489 -106.5525 152° Southeast 188 216 8,200 -919 Descending Denver Center
08:37PM 43.0047 -106.5139 147° Southeast 193 222 7,400 -581 Descending Denver Center
08:38PM 42.9542 -106.4678 146° Southeast 194 223 7,000 -387 Descending Denver Center
08:40PM 42.9080 -106.4644 151° Southeast  Level Estimated
08:47PM 42.9080 -106.4644 151° Southeast  Level Estimated
08:48PM 42.9080 -106.4644 151° Southeast  Level Estimated